Time;durP1;ratioP1;P1;durP2;ratioP2;P2;SDS_P1;SDS_P2;PMS_P1;PMS_P2;Temp;Humidity;BMP_temperature;BMP_pressure;BME280_temperature;BME280_humidity;BME280_pressure;Samples;Min_cycle;Max_cycle;Signal;HPM_P1;HPM_P2
2023/02/13 00:00:46;;;;;;;21.13;10.90;;;;;;;;;;4989186;28;20072;-68
2023/02/13 00:03:11;;;;;;;24.33;11.60;;;;;;;;;;4990933;28;20019;-66
2023/02/13 00:05:36;;;;;;;19.35;10.55;;;;;;;;;;4989361;28;20402;-66
2023/02/13 00:08:01;;;;;;;19.52;10.25;;;;;;;;;;4991810;28;20035;-66
2023/02/13 00:10:26;;;;;;;19.73;10.47;;;;;;;;;;4993696;28;20025;-65
2023/02/13 00:12:52;;;;;;;20.43;10.53;;;;;;;;;;4997592;28;20022;-66
2023/02/13 00:15:17;;;;;;;22.05;10.55;;;;;;;;;;4993778;28;20054;-64
2023/02/13 00:17:42;;;;;;;22.60;11.93;;;;;;;;;;4992572;28;20045;-66
2023/02/13 00:20:09;;;;;;;26.93;12.83;;;;;;;;;;4997072;28;20109;-66
2023/02/13 00:22:34;;;;;;;24.35;12.20;;;;;;;;;;4998302;28;20022;-68
2023/02/13 00:24:59;;;;;;;23.45;11.55;;;;;;;;;;4992323;28;20520;-65
2023/02/13 00:27:25;;;;;;;26.60;12.60;;;;;;;;;;4990541;28;20545;-67
2023/02/13 00:29:50;;;;;;;24.25;11.68;;;;;;;;;;4990266;28;20037;-66
2023/02/13 00:32:15;;;;;;;19.98;10.38;;;;;;;;;;4990653;28;20080;-66
2023/02/13 00:34:40;;;;;;;20.50;10.52;;;;;;;;;;4989936;28;20484;-66
2023/02/13 00:37:05;;;;;;;23.83;12.03;;;;;;;;;;4990664;28;20022;-66
2023/02/13 00:39:30;;;;;;;22.63;11.30;;;;;;;;;;4990861;28;20461;-67
2023/02/13 00:41:55;;;;;;;20.25;10.32;;;;;;;;;;4991666;28;20417;-67
2023/02/13 00:44:21;;;;;;;27.52;12.88;;;;;;;;;;4991223;28;20053;-66
2023/02/13 00:46:46;;;;;;;20.23;10.15;;;;;;;;;;4989600;28;20098;-67
2023/02/13 00:49:11;;;;;;;19.40;10.02;;;;;;;;;;4991021;28;20019;-67
2023/02/13 00:51:36;;;;;;;20.02;9.52;;;;;;;;;;4991411;28;20526;-65
2023/02/13 00:54:01;;;;;;;21.27;10.73;;;;;;;;;;4989078;28;20042;-66
2023/02/13 00:56:27;;;;;;;21.80;10.43;;;;;;;;;;4988615;28;20014;-67
2023/02/13 00:58:52;;;;;;;23.93;11.73;;;;;;;;;;4990042;28;20130;-66
2023/02/13 01:01:17;;;;;;;22.98;10.48;;;;;;;;;;4989111;28;20453;-67
2023/02/13 01:03:42;;;;;;;24.35;10.05;;;;;;;;;;4983742;28;20023;-67
2023/02/13 01:06:07;;;;;;;18.73;9.35;;;;;;;;;;4988172;28;20050;-67
2023/02/13 01:08:32;;;;;;;20.30;9.73;;;;;;;;;;4984744;28;20031;-67
2023/02/13 01:10:58;;;;;;;24.83;11.23;;;;;;;;;;4988923;28;20145;-66
2023/02/13 01:13:23;;;;;;;25.90;11.90;;;;;;;;;;4988648;28;20105;-66
2023/02/13 01:15:49;;;;;;;22.10;10.77;;;;;;;;;;4992121;28;20026;-66
2023/02/13 01:18:18;;;;;;;21.35;10.20;;;;;;;;;;4996775;28;20097;-67
2023/02/13 01:20:43;;;;;;;20.42;9.85;;;;;;;;;;4993747;28;20057;-67
2023/02/13 01:23:09;;;;;;;31.48;13.68;;;;;;;;;;5000515;28;20015;-66
2023/02/13 01:25:34;;;;;;;24.23;11.35;;;;;;;;;;5009544;28;20028;-65
2023/02/13 01:27:59;;;;;;;22.20;11.13;;;;;;;;;;4991024;28;20019;-65
2023/02/13 01:30:24;;;;;;;24.48;11.13;;;;;;;;;;4988767;28;20026;-66
2023/02/13 01:32:50;;;;;;;24.48;11.38;;;;;;;;;;4990645;28;20398;-65
2023/02/13 01:35:15;;;;;;;23.33;11.17;;;;;;;;;;4989397;28;20065;-66
2023/02/13 01:37:40;;;;;;;21.53;10.20;;;;;;;;;;4989440;28;20498;-66
2023/02/13 01:40:06;;;;;;;26.38;11.65;;;;;;;;;;4990230;28;20072;-67
2023/02/13 01:42:32;;;;;;;30.30;13.20;;;;;;;;;;4986200;28;20486;-67
2023/02/13 01:45:02;;;;;;;22.08;10.40;;;;;;;;;;4989198;28;20022;-66
2023/02/13 01:47:32;;;;;;;22.00;10.50;;;;;;;;;;4986159;28;20021;-67
2023/02/13 01:50:02;;;;;;;26.85;11.55;;;;;;;;;;4987491;28;20018;-67
2023/02/13 01:52:27;;;;;;;21.00;9.55;;;;;;;;;;4989946;28;20022;-66
2023/02/13 01:54:52;;;;;;;22.52;10.50;;;;;;;;;;4989656;28;20034;-66
2023/02/13 01:57:19;;;;;;;21.43;10.27;;;;;;;;;;4985653;28;20493;-67
2023/02/13 01:59:58;;;;;;;22.10;10.35;;;;;;;;;;4991489;28;20516;-66
2023/02/13 02:02:23;;;;;;;22.88;10.85;;;;;;;;;;4988781;28;20061;-66
2023/02/13 02:04:49;;;;;;;23.63;10.98;;;;;;;;;;4989009;28;20058;-65
2023/02/13 02:07:24;;;;;;;22.80;10.48;;;;;;;;;;4988478;28;20104;-67
2023/02/13 02:09:51;;;;;;;19.48;9.95;;;;;;;;;;4982696;28;20026;-66
2023/02/13 02:12:32;;;;;;;22.45;10.45;;;;;;;;;;4984771;28;20030;-67
2023/02/13 02:14:58;;;;;;;25.33;11.20;;;;;;;;;;4987701;28;20030;-66
2023/02/13 02:17:24;;;;;;;23.17;10.70;;;;;;;;;;4987271;28;20443;-67
2023/02/13 02:19:50;;;;;;;23.58;10.63;;;;;;;;;;4987551;28;20037;-67
2023/02/13 02:22:23;;;;;;;24.90;10.60;;;;;;;;;;4992501;28;20022;-67
2023/02/13 02:25:07;;;;;;;24.50;10.85;;;;;;;;;;4995042;28;20030;-66
2023/02/13 02:27:50;;;;;;;25.70;10.68;;;;;;;;;;4987596;28;21264;-64
2023/02/13 02:30:37;;;;;;;19.38;10.05;;;;;;;;;;4988507;28;20474;-66
2023/02/13 02:33:05;;;;;;;21.83;9.45;;;;;;;;;;4987986;28;20031;-66
2023/02/13 02:35:35;;;;;;;23.92;10.55;;;;;;;;;;4987835;28;20393;-67
2023/02/13 02:38:06;;;;;;;20.70;9.93;;;;;;;;;;4987287;28;20019;-66
2023/02/13 02:40:50;;;;;;;21.52;9.43;;;;;;;;;;4991064;28;20096;-66
2023/02/13 02:43:21;;;;;;;21.80;9.88;;;;;;;;;;4990979;28;20038;-66
2023/02/13 02:45:46;;;;;;;22.90;11.23;;;;;;;;;;4990635;28;20030;-67
2023/02/13 02:51:28;;;;;;;20.95;9.55;;;;;;;;;;4986795;28;20100;-66
2023/02/13 02:54:00;;;;;;;23.25;10.10;;;;;;;;;;4991005;28;20100;-67
2023/02/13 02:56:27;;;;;;;24.77;9.73;;;;;;;;;;4992217;28;20041;-66
2023/02/13 03:07:09;;;;;;;19.33;8.93;;;;;;;;;;4990763;28;20041;-67
2023/02/13 03:15:05;;;;;;;25.65;10.38;;;;;;;;;;4992330;28;20045;-65
2023/02/13 03:22:17;;;;;;;25.15;9.98;;;;;;;;;;4991708;28;20073;-65
2023/02/13 03:23:39;;;;;;;29.45;11.43;;;;;;;;;;4990561;28;20092;-67
2023/02/13 03:26:09;;;;;;;27.25;11.07;;;;;;;;;;4991043;28;20478;-68
2023/02/13 03:31:48;;;;;;;28.05;11.38;;;;;;;;;;4993967;28;20361;-66
2023/02/13 03:34:19;;;;;;;27.27;10.10;;;;;;;;;;4992457;28;20094;-66
2023/02/13 03:39:46;;;;;;;36.17;12.13;;;;;;;;;;4989059;28;20077;-66
2023/02/13 03:42:19;;;;;;;30.13;11.23;;;;;;;;;;4992153;28;20046;-64
2023/02/13 03:45:51;;;;;;;34.58;11.50;;;;;;;;;;4988918;28;20482;-65
2023/02/13 03:47:36;;;;;;;33.53;12.02;;;;;;;;;;4993047;28;20081;-65
2023/02/13 03:50:05;;;;;;;34.47;12.60;;;;;;;;;;4992458;28;20049;-65
2023/02/13 03:52:37;;;;;;;30.50;11.45;;;;;;;;;;4992338;28;20409;-66
2023/02/13 04:00:45;;;;;;;31.75;11.85;;;;;;;;;;4991012;28;20093;-65
2023/02/13 04:03:21;;;;;;;29.35;11.45;;;;;;;;;;4991794;28;20046;-67
2023/02/13 04:05:48;;;;;;;32.95;11.68;;;;;;;;;;4991031;28;20042;-67
2023/02/13 04:08:13;;;;;;;33.13;11.88;;;;;;;;;;4991717;28;20023;-65
2023/02/13 04:10:45;;;;;;;29.65;11.55;;;;;;;;;;4992192;28;20022;-67
2023/02/13 04:13:10;;;;;;;;;;;;;;;;;;4991754;28;20039;-67
2023/02/13 04:15:39;;;;;;;32.13;12.02;;;;;;;;;;4990991;28;19910;-68
2023/02/13 04:18:07;;;;;;;30.83;11.18;;;;;;;;;;4991556;28;20057;-67
2023/02/13 04:20:32;;;;;;;30.67;12.05;;;;;;;;;;4987064;28;20022;-67
2023/02/13 04:23:02;;;;;;;27.40;12.20;;;;;;;;;;4988476;28;20449;-67
2023/02/13 04:25:28;;;;;;;27.88;11.20;;;;;;;;;;4990739;28;20465;-64
2023/02/13 04:27:53;;;;;;;27.63;11.23;;;;;;;;;;4990529;28;20084;-66
2023/02/13 04:30:18;;;;;;;29.23;10.97;;;;;;;;;;4990078;28;20022;-67
2023/02/13 04:32:43;;;;;;;29.30;11.17;;;;;;;;;;4990407;28;20093;-67
2023/02/13 04:35:10;;;;;;;31.23;12.27;;;;;;;;;;4990937;28;20037;-67
2023/02/13 04:37:35;;;;;;;29.30;11.55;;;;;;;;;;4992299;28;20412;-66
2023/02/13 04:40:00;;;;;;;27.50;10.38;;;;;;;;;;4991289;28;20547;-67
2023/02/13 04:42:25;;;;;;;29.48;11.32;;;;;;;;;;4991018;28;20037;-67
2023/02/13 04:44:50;;;;;;;30.23;12.00;;;;;;;;;;4984014;28;20026;-67
2023/02/13 04:47:16;;;;;;;27.75;11.13;;;;;;;;;;4991275;28;20493;-67
2023/02/13 04:49:41;;;;;;;27.83;10.98;;;;;;;;;;4990626;28;20023;-66
2023/02/13 04:52:06;;;;;;;30.05;11.82;;;;;;;;;;4991052;28;20382;-66
2023/02/13 04:54:31;;;;;;;26.83;10.85;;;;;;;;;;4991401;28;20031;-67
2023/02/13 04:56:56;;;;;;;29.47;11.33;;;;;;;;;;4990042;28;20065;-67
2023/02/13 04:59:22;;;;;;;25.45;10.73;;;;;;;;;;4991249;28;20068;-67
2023/02/13 05:01:47;;;;;;;28.80;11.25;;;;;;;;;;4984805;28;20113;-67
2023/02/13 05:04:15;;;;;;;32.30;11.10;;;;;;;;;;4988933;28;20026;-67
2023/02/13 05:06:40;;;;;;;27.67;10.63;;;;;;;;;;4989565;28;20729;-68
2023/02/13 05:09:05;;;;;;;29.83;11.93;;;;;;;;;;4981243;28;20118;-68
2023/02/13 05:11:30;;;;;;;26.70;10.50;;;;;;;;;;4995561;28;20030;-67
2023/02/13 05:13:55;;;;;;;29.05;11.00;;;;;;;;;;4997613;28;20476;-67
2023/02/13 05:16:20;;;;;;;26.73;10.70;;;;;;;;;;4994861;28;20021;-68
2023/02/13 05:18:45;;;;;;;27.60;10.65;;;;;;;;;;4983959;28;20029;-69
2023/02/13 05:23:54;;;;;;;29.90;11.93;;;;;;;;;;4977640;28;20088;-68
2023/02/13 05:26:19;;;;;;;24.17;9.60;;;;;;;;;;4983732;28;20026;-67
2023/02/13 05:31:29;;;;;;;;;;;;;;;;;;4984807;28;20053;-65
2023/02/13 05:33:54;;;;;;;27.58;10.15;;;;;;;;;;4987311;28;19953;-68
2023/02/13 05:36:19;;;;;;;23.63;9.67;;;;;;;;;;4988830;28;20023;-66
2023/02/13 05:38:44;;;;;;;22.48;9.82;;;;;;;;;;4989158;28;20022;-67
2023/02/13 05:41:12;;;;;;;24.95;10.10;;;;;;;;;;4989778;28;20010;-67
2023/02/13 05:43:37;;;;;;;24.27;9.80;;;;;;;;;;4988914;28;20077;-67
2023/02/13 05:46:03;;;;;;;26.58;10.73;;;;;;;;;;4990911;28;20427;-66
2023/02/13 05:48:29;;;;;;;23.88;9.73;;;;;;;;;;4991579;28;20042;-67
2023/02/13 05:50:54;;;;;;;21.63;9.70;;;;;;;;;;4993060;28;20022;-67
2023/02/13 05:53:19;;;;;;;21.03;9.77;;;;;;;;;;4991910;28;20018;-67
2023/02/13 05:55:45;;;;;;;23.83;10.47;;;;;;;;;;4993936;28;20026;-65
2023/02/13 05:58:10;;;;;;;24.08;10.30;;;;;;;;;;4993010;28;20113;-66
2023/02/13 06:00:35;;;;;;;22.30;9.90;;;;;;;;;;4991517;28;20053;-67
2023/02/13 06:03:01;;;;;;;22.25;10.15;;;;;;;;;;4987705;28;20405;-67
2023/02/13 06:05:26;;;;;;;21.42;8.82;;;;;;;;;;4988751;28;20027;-67
2023/02/13 06:07:51;;;;;;;22.33;9.20;;;;;;;;;;4987468;28;20022;-67
2023/02/13 06:10:16;;;;;;;25.08;9.63;;;;;;;;;;4985268;28;20025;-67
2023/02/13 06:12:42;;;;;;;24.27;9.50;;;;;;;;;;4986286;28;20014;-67
2023/02/13 06:15:07;;;;;;;21.98;8.77;;;;;;;;;;4984258;28;20092;-66
2023/02/13 06:17:32;;;;;;;24.13;9.50;;;;;;;;;;4987726;28;20018;-67
2023/02/13 06:19:57;;;;;;;22.48;9.15;;;;;;;;;;4986289;28;20032;-66
2023/02/13 06:22:22;;;;;;;24.80;9.82;;;;;;;;;;4985797;28;20130;-67
2023/02/13 06:24:47;;;;;;;24.13;9.48;;;;;;;;;;4987825;28;20049;-67
2023/02/13 06:27:12;;;;;;;25.52;9.77;;;;;;;;;;4984595;28;20363;-68
2023/02/13 06:29:38;;;;;;;24.05;9.32;;;;;;;;;;4988430;28;20066;-67
2023/02/13 06:32:03;;;;;;;21.63;9.33;;;;;;;;;;4982903;28;20030;-66
2023/02/13 06:34:28;;;;;;;23.33;9.03;;;;;;;;;;4975616;28;20038;-66
2023/02/13 06:36:53;;;;;;;25.10;10.48;;;;;;;;;;4981527;28;20180;-66
2023/02/13 06:39:18;;;;;;;22.40;8.97;;;;;;;;;;4984790;28;20080;-66
2023/02/13 06:41:43;;;;;;;21.95;8.75;;;;;;;;;;4983356;28;20837;-66
2023/02/13 06:44:09;;;;;;;25.00;9.75;;;;;;;;;;4987188;28;20583;-67
2023/02/13 06:46:34;;;;;;;21.00;8.82;;;;;;;;;;4984798;28;20146;-66
2023/02/13 06:48:59;;;;;;;31.33;11.70;;;;;;;;;;4989692;28;20091;-64
2023/02/13 06:51:24;;;;;;;27.45;10.43;;;;;;;;;;4982266;28;20026;-66
2023/02/13 06:53:49;;;;;;;25.20;9.57;;;;;;;;;;4975532;28;20121;-67
2023/02/13 06:56:14;;;;;;;29.60;10.63;;;;;;;;;;4984968;28;20037;-66
2023/02/13 06:58:40;;;;;;;23.42;8.77;;;;;;;;;;4985193;28;20038;-66
2023/02/13 07:01:05;;;;;;;21.77;9.43;;;;;;;;;;4980391;28;20125;-65
2023/02/13 07:03:31;;;;;;;23.77;9.60;;;;;;;;;;4984480;28;20034;-66
2023/02/13 07:05:56;;;;;;;25.63;9.73;;;;;;;;;;4974951;28;20862;-65
2023/02/13 07:08:21;;;;;;;26.90;9.43;;;;;;;;;;4984274;28;20066;-66
2023/02/13 07:10:46;;;;;;;25.37;9.57;;;;;;;;;;4984479;28;20027;-66
2023/02/13 07:13:12;;;;;;;25.43;9.30;;;;;;;;;;4985733;28;20725;-67
2023/02/13 07:15:37;;;;;;;28.30;10.20;;;;;;;;;;4981945;28;20042;-66
2023/02/13 07:18:02;;;;;;;30.30;10.50;;;;;;;;;;4992817;28;20015;-65
2023/02/13 07:20:27;;;;;;;29.20;10.02;;;;;;;;;;4985475;28;20038;-67
2023/02/13 07:22:56;;;;;;;29.43;10.27;;;;;;;;;;4986240;28;20509;-64
2023/02/13 07:25:21;;;;;;;30.85;10.45;;;;;;;;;;4991583;28;20058;-64
2023/02/13 07:27:46;;;;;;;28.73;10.35;;;;;;;;;;4987764;28;21691;-65
2023/02/13 07:30:11;;;;;;;30.23;10.57;;;;;;;;;;4987269;28;20041;-65
2023/02/13 07:32:37;;;;;;;31.07;10.27;;;;;;;;;;4993116;28;20080;-66
2023/02/13 07:35:02;;;;;;;33.17;10.67;;;;;;;;;;4985362;28;20492;-66
2023/02/13 07:37:28;;;;;;;28.05;10.88;;;;;;;;;;5000108;28;20014;-65
2023/02/13 07:39:53;;;;;;;29.73;10.70;;;;;;;;;;4991487;28;20371;-66
2023/02/13 07:42:18;;;;;;;32.70;10.93;;;;;;;;;;4989491;28;20101;-66
2023/02/13 07:44:43;;;;;;;30.13;10.67;;;;;;;;;;4990252;28;20023;-67
2023/02/13 07:47:09;;;;;;;33.63;11.30;;;;;;;;;;4995553;28;20015;-67
2023/02/13 07:49:35;;;;;;;34.17;11.35;;;;;;;;;;4992402;28;20017;-67
2023/02/13 07:52:00;;;;;;;35.35;11.57;;;;;;;;;;4992451;28;20204;-65
2023/02/13 07:54:26;;;;;;;30.43;11.03;;;;;;;;;;4992068;28;20029;-65
2023/02/13 07:56:51;;;;;;;29.17;10.07;;;;;;;;;;4987711;28;20033;-67
2023/02/13 07:59:16;;;;;;;29.27;10.45;;;;;;;;;;4990387;28;20026;-64
2023/02/13 08:01:41;;;;;;;31.57;10.30;;;;;;;;;;4995478;28;20025;-65
2023/02/13 08:04:06;;;;;;;33.05;11.32;;;;;;;;;;5002362;28;20049;-65
2023/02/13 08:06:31;;;;;;;28.10;10.32;;;;;;;;;;4992179;28;20026;-65
2023/02/13 08:11:53;;;;;;;27.58;10.50;;;;;;;;;;4999215;28;20028;-66
2023/02/13 08:14:22;;;;;;;30.52;11.10;;;;;;;;;;4999120;28;20026;-65
2023/02/13 08:16:48;;;;;;;30.77;10.18;;;;;;;;;;5005750;28;20054;-66
2023/02/13 08:19:13;;;;;;;31.33;10.40;;;;;;;;;;4997997;28;20108;-65
2023/02/13 08:21:39;;;;;;;32.47;11.37;;;;;;;;;;4997431;28;20038;-66
2023/02/13 08:24:04;;;;;;;27.10;9.70;;;;;;;;;;4994894;28;20093;-65
2023/02/13 08:26:30;;;;;;;31.93;11.23;;;;;;;;;;4995193;28;20077;-64
2023/02/13 08:28:55;;;;;;;31.05;10.43;;;;;;;;;;4999429;28;20017;-65
2023/02/13 08:31:20;;;;;;;32.20;10.90;;;;;;;;;;4991101;28;20026;-64
2023/02/13 08:33:46;;;;;;;28.65;10.15;;;;;;;;;;4989215;28;20023;-65
2023/02/13 08:36:11;;;;;;;30.30;10.27;;;;;;;;;;4992960;28;20014;-67
2023/02/13 08:38:36;;;;;;;30.67;10.18;;;;;;;;;;4991982;28;20022;-64
2023/02/13 08:41:01;;;;;;;26.57;10.20;;;;;;;;;;4997153;28;20637;-65
2023/02/13 08:43:26;;;;;;;29.55;11.18;;;;;;;;;;4988936;28;20030;-65
2023/02/13 08:45:51;;;;;;;31.25;10.48;;;;;;;;;;5003471;28;20432;-66
2023/02/13 08:48:16;;;;;;;30.58;10.85;;;;;;;;;;4999250;28;20021;-65
2023/02/13 08:50:42;;;;;;;28.20;10.25;;;;;;;;;;5003119;28;20073;-65
2023/02/13 08:53:07;;;;;;;25.55;10.10;;;;;;;;;;5011526;28;20041;-65
2023/02/13 08:55:32;;;;;;;25.83;9.87;;;;;;;;;;5012201;28;20030;-67
2023/02/13 08:58:01;;;;;;;24.90;9.60;;;;;;;;;;5009996;28;20018;-64
2023/02/13 09:00:26;;;;;;;28.17;9.73;;;;;;;;;;4990875;28;20053;-66
2023/02/13 09:02:51;;;;;;;25.40;9.40;;;;;;;;;;5001593;28;20049;-65
2023/02/13 09:05:17;;;;;;;24.50;8.63;;;;;;;;;;5011932;28;20021;-66
2023/02/13 09:07:42;;;;;;;24.42;9.23;;;;;;;;;;4992895;28;20073;-66
2023/02/13 09:10:07;;;;;;;24.20;8.82;;;;;;;;;;4992381;28;20430;-67
2023/02/13 09:12:32;;;;;;;22.58;8.02;;;;;;;;;;4991050;28;20039;-66
2023/02/13 09:14:57;;;;;;;21.20;8.23;;;;;;;;;;5005502;28;20026;-67
2023/02/13 09:17:23;;;;;;;20.83;8.60;;;;;;;;;;5009904;28;20038;-65
2023/02/13 09:19:48;;;;;;;21.53;8.87;;;;;;;;;;4989360;28;20030;-65
2023/02/13 09:22:15;;;;;;;25.80;8.50;;;;;;;;;;5003331;28;20022;-65
2023/02/13 09:24:41;;;;;;;26.50;9.18;;;;;;;;;;4993067;28;20558;-64
2023/02/13 09:27:07;;;;;;;21.08;7.82;;;;;;;;;;4999872;28;20045;-65
2023/02/13 09:29:32;;;;;;;22.17;8.07;;;;;;;;;;5007487;28;20470;-65
2023/02/13 09:31:57;;;;;;;22.63;8.37;;;;;;;;;;5011952;28;20072;-65
2023/02/13 09:34:22;;;;;;;19.55;8.02;;;;;;;;;;4994963;28;20026;-65
2023/02/13 09:36:52;;;;;;;23.02;9.18;;;;;;;;;;4990903;28;20025;-66
2023/02/13 09:39:17;;;;;;;20.20;8.02;;;;;;;;;;4992627;28;20025;-67
2023/02/13 09:41:44;;;;;;;22.33;9.27;;;;;;;;;;4999609;28;20406;-67
2023/02/13 09:44:09;;;;;;;;;;;;;;;;;;5011875;28;20018;-66
2023/02/13 09:46:35;;;;;;;24.20;9.60;;;;;;;;;;4999930;28;20008;-64
2023/02/13 09:49:04;;;;;;;20.33;8.48;;;;;;;;;;4991421;28;20022;-65
2023/02/13 09:51:29;;;;;;;21.95;8.85;;;;;;;;;;4990891;28;20101;-67
2023/02/13 09:53:57;;;;;;;22.15;8.85;;;;;;;;;;4999378;28;20125;-64
2023/02/13 09:56:45;;;;;;;20.05;8.73;;;;;;;;;;4990413;28;20022;-66
2023/02/13 09:59:13;;;;;;;24.65;8.18;;;;;;;;;;5002879;28;20065;-65
2023/02/13 10:01:42;;;;;;;22.17;8.52;;;;;;;;;;5001470;28;20105;-67
2023/02/13 10:04:24;;;;;;;19.35;8.57;;;;;;;;;;4991709;28;20068;-65
2023/02/13 10:06:52;;;;;;;21.63;8.93;;;;;;;;;;4973134;28;20537;-65
2023/02/13 10:09:27;;;;;;;18.00;7.80;;;;;;;;;;4977662;28;20057;-66
2023/02/13 10:12:00;;;;;;;17.35;8.05;;;;;;;;;;4990518;28;20018;-65
2023/02/13 10:14:36;;;;;;;18.85;8.13;;;;;;;;;;4971854;28;20023;-65
2023/02/13 10:17:04;;;;;;;20.13;8.25;;;;;;;;;;4971734;28;20045;-65
2023/02/13 10:19:38;;;;;;;17.23;7.25;;;;;;;;;;4979008;28;20085;-66
2023/02/13 10:22:07;;;;;;;18.55;8.02;;;;;;;;;;4998039;28;20281;-65
2023/02/13 10:25:01;;;;;;;16.90;7.25;;;;;;;;;;4999186;28;20034;-65
2023/02/13 10:27:45;;;;;;;16.88;7.20;;;;;;;;;;5007737;28;20026;-67
2023/02/13 10:30:16;;;;;;;26.42;11.20;;;;;;;;;;4973501;28;20046;-65
2023/02/13 10:33:19;;;;;;;23.20;9.45;;;;;;;;;;4977946;28;20019;-66
2023/02/13 10:35:48;;;;;;;25.17;10.82;;;;;;;;;;5012802;28;20038;-65
2023/02/13 10:38:19;;;;;;;17.85;7.88;;;;;;;;;;4993100;28;20392;-64
2023/02/13 10:41:22;;;;;;;14.63;6.95;;;;;;;;;;4978069;28;20102;-65
2023/02/13 10:44:03;;;;;;;16.52;7.20;;;;;;;;;;4984019;28;20510;-65
2023/02/13 10:46:51;;;;;;;15.38;6.85;;;;;;;;;;4969190;28;20034;-65
2023/02/13 10:49:26;;;;;;;16.85;7.50;;;;;;;;;;5010406;28;20088;-64
2023/02/13 10:52:03;;;;;;;15.85;7.10;;;;;;;;;;4995053;28;20024;-65
2023/02/13 10:54:47;;;;;;;16.20;7.50;;;;;;;;;;4987739;28;20030;-66
2023/02/13 10:57:12;;;;;;;;;;;;;;;;;;4991436;28;20491;-67
2023/02/13 10:59:50;;;;;;;12.95;5.82;;;;;;;;;;4990694;28;20358;-67
2023/02/13 11:02:25;;;;;;;13.82;6.13;;;;;;;;;;4991680;28;20026;-66
2023/02/13 11:04:57;;;;;;;12.10;5.72;;;;;;;;;;5003830;28;20019;-66
2023/02/13 11:07:24;;;;;;;13.40;5.82;;;;;;;;;;5014803;28;20393;-67
2023/02/13 11:09:51;;;;;;;14.35;6.10;;;;;;;;;;5014345;28;20097;-66
2023/02/13 11:12:23;;;;;;;12.30;5.53;;;;;;;;;;5013317;28;20029;-66
2023/02/13 11:14:58;;;;;;;13.00;5.72;;;;;;;;;;5013965;28;20088;-67
2023/02/13 11:17:25;;;;;;;9.82;4.78;;;;;;;;;;5002792;28;20026;-65
2023/02/13 11:19:52;;;;;;;12.60;6.05;;;;;;;;;;5002458;28;20549;-66
2023/02/13 11:22:27;;;;;;;12.85;5.30;;;;;;;;;;5003614;28;20021;-66
2023/02/13 11:24:55;;;;;;;12.35;5.75;;;;;;;;;;5001837;28;20030;-66
2023/02/13 11:27:23;;;;;;;12.43;5.90;;;;;;;;;;5007847;28;20445;-66
2023/02/13 11:29:56;;;;;;;12.55;5.72;;;;;;;;;;5014295;28;20042;-65
2023/02/13 11:32:22;;;;;;;11.98;6.22;;;;;;;;;;5012822;28;20441;-67
2023/02/13 11:34:49;;;;;;;13.75;6.22;;;;;;;;;;4995816;28;20030;-65
2023/02/13 11:37:14;;;;;;;;;;;;;;;;;;5003365;28;20021;-66
2023/02/13 11:39:40;;;;;;;11.75;5.57;;;;;;;;;;4984549;28;19933;-65
2023/02/13 11:42:12;;;;;;;12.40;5.72;;;;;;;;;;4990173;28;20030;-66
2023/02/13 11:44:39;;;;;;;11.95;5.97;;;;;;;;;;5002250;28;20056;-65
2023/02/13 11:47:04;;;;;;;11.48;5.88;;;;;;;;;;5004964;28;20477;-65
2023/02/13 11:49:31;;;;;;;12.27;5.80;;;;;;;;;;5013181;28;20105;-66
2023/02/13 11:51:58;;;;;;;12.30;5.88;;;;;;;;;;5000978;28;20061;-66
2023/02/13 11:54:29;;;;;;;14.95;6.57;;;;;;;;;;5007135;28;20033;-66
2023/02/13 11:56:58;;;;;;;12.13;6.22;;;;;;;;;;5013057;28;20022;-66
2023/02/13 11:59:25;;;;;;;13.15;6.25;;;;;;;;;;4984638;28;20625;-66
2023/02/13 12:02:02;;;;;;;13.05;5.88;;;;;;;;;;4993052;28;20109;-66
2023/02/13 12:04:27;;;;;;;11.75;5.85;;;;;;;;;;4992279;28;20050;-66
2023/02/13 12:06:57;;;;;;;10.63;5.65;;;;;;;;;;5003285;28;20134;-65
2023/02/13 12:09:22;;;;;;;13.20;5.88;;;;;;;;;;5007240;28;20052;-68
2023/02/13 12:11:49;;;;;;;10.93;5.97;;;;;;;;;;5011542;28;20026;-67
2023/02/13 12:14:16;;;;;;;11.32;6.20;;;;;;;;;;5012654;28;20038;-67
2023/02/13 12:16:44;;;;;;;13.32;6.30;;;;;;;;;;5012701;28;20140;-67
2023/02/13 12:19:15;;;;;;;17.48;9.10;;;;;;;;;;5007322;28;20401;-67
2023/02/13 12:21:59;;;;;;;22.83;12.43;;;;;;;;;;4989693;28;20537;-67
2023/02/13 12:24:43;;;;;;;14.57;8.75;;;;;;;;;;4992242;28;20436;-67
2023/02/13 12:27:20;;;;;;;13.65;8.45;;;;;;;;;;4992370;28;20022;-66
2023/02/13 12:29:48;;;;;;;9.35;5.90;;;;;;;;;;4992382;28;20046;-67
2023/02/13 12:32:16;;;;;;;7.38;4.03;;;;;;;;;;4991703;28;20485;-67
2023/02/13 12:34:50;;;;;;;7.85;3.88;;;;;;;;;;4987822;28;20085;-65
2023/02/13 12:37:18;;;;;;;7.50;4.20;;;;;;;;;;4985030;28;20584;-68
2023/02/13 12:39:51;;;;;;;7.20;3.70;;;;;;;;;;4985529;28;20041;-67
2023/02/13 12:42:16;;;;;;;;;;;;;;;;;;4989597;28;20494;-66
2023/02/13 12:44:57;;;;;;;7.13;3.72;;;;;;;;;;4991622;28;20384;-67
2023/02/13 12:47:25;;;;;;;7.40;3.85;;;;;;;;;;4992141;28;20014;-67
2023/02/13 12:50:00;;;;;;;7.63;4.03;;;;;;;;;;4992344;28;20022;-67
2023/02/13 12:52:38;;;;;;;7.97;4.05;;;;;;;;;;4987402;28;20064;-66
2023/02/13 12:55:09;;;;;;;7.20;3.53;;;;;;;;;;4994979;28;20109;-65
2023/02/13 12:57:54;;;;;;;8.50;3.60;;;;;;;;;;4994887;28;20026;-65
2023/02/13 13:00:38;;;;;;;7.53;3.47;;;;;;;;;;4996268;28;20049;-66
2023/02/13 13:03:17;;;;;;;6.72;3.38;;;;;;;;;;4994768;28;20018;-66
2023/02/13 13:05:59;;;;;;;7.70;4.05;;;;;;;;;;4988685;28;20695;-65
2023/02/13 13:08:24;;;;;;;9.40;4.07;;;;;;;;;;4994383;28;20018;-65
2023/02/13 13:11:08;;;;;;;7.65;3.95;;;;;;;;;;4993567;28;20029;-65
2023/02/13 13:13:42;;;;;;;7.28;3.88;;;;;;;;;;4992337;28;20023;-67
2023/02/13 13:16:15;;;;;;;9.20;4.28;;;;;;;;;;4992147;28;20022;-66
2023/02/13 13:18:59;;;;;;;7.35;3.90;;;;;;;;;;4988461;28;20084;-65
2023/02/13 13:21:36;;;;;;;9.93;4.45;;;;;;;;;;4992489;28;20049;-66
2023/02/13 13:24:20;;;;;;;10.95;4.60;;;;;;;;;;4988746;28;20022;-65
2023/02/13 13:26:48;;;;;;;8.23;4.03;;;;;;;;;;4989715;28;20138;-65
2023/02/13 13:29:24;;;;;;;7.95;4.72;;;;;;;;;;4991587;28;20351;-67
2023/02/13 13:31:52;;;;;;;8.32;4.43;;;;;;;;;;4990629;28;20473;-66
2023/02/13 13:34:21;;;;;;;8.43;4.60;;;;;;;;;;4998447;28;20030;-67
2023/02/13 13:36:49;;;;;;;7.80;4.15;;;;;;;;;;4991051;28;20030;-67
2023/02/13 13:39:23;;;;;;;9.63;4.70;;;;;;;;;;4994503;28;20050;-66
2023/02/13 13:41:53;;;;;;;9.13;4.50;;;;;;;;;;4984568;28;20090;-65
2023/02/13 13:44:41;;;;;;;9.20;4.28;;;;;;;;;;4987872;28;20025;-65
2023/02/13 13:47:18;;;;;;;10.13;4.82;;;;;;;;;;4991533;28;20026;-65
2023/02/13 13:49:50;;;;;;;9.02;4.25;;;;;;;;;;4989645;28;20014;-65
2023/02/13 13:52:20;;;;;;;8.77;4.47;;;;;;;;;;4992116;28;20033;-66
2023/02/13 13:54:50;;;;;;;10.50;4.90;;;;;;;;;;4991560;28;20030;-67
2023/02/13 13:57:15;;;;;;;8.50;4.50;;;;;;;;;;4994157;28;20413;-66
2023/02/13 13:59:48;;;;;;;10.20;5.10;;;;;;;;;;4982773;28;20041;-67
2023/02/13 14:02:17;;;;;;;9.18;4.95;;;;;;;;;;4990315;28;20445;-67
2023/02/13 14:05:01;;;;;;;9.13;4.43;;;;;;;;;;4985873;28;20117;-67
2023/02/13 14:07:32;;;;;;;10.57;5.10;;;;;;;;;;4990498;28;20010;-65
2023/02/13 14:09:57;;;;;;;10.75;5.35;;;;;;;;;;4989686;28;20394;-66
2023/02/13 14:12:28;;;;;;;10.15;5.22;;;;;;;;;;4984172;28;20097;-65
2023/02/13 14:14:53;;;;;;;9.45;5.15;;;;;;;;;;4990444;28;20038;-65
2023/02/13 14:17:37;;;;;;;9.68;4.78;;;;;;;;;;4991291;28;20093;-66
2023/02/13 14:20:16;;;;;;;10.15;4.28;;;;;;;;;;4993750;28;20019;-66
2023/02/13 14:22:41;;;;;;;7.63;4.13;;;;;;;;;;4994409;28;20084;-67
2023/02/13 14:25:18;;;;;;;7.82;4.18;;;;;;;;;;4990340;28;20105;-66
2023/02/13 14:27:53;;;;;;;9.07;4.80;;;;;;;;;;4991462;28;20425;-67
2023/02/13 14:30:26;;;;;;;10.80;4.45;;;;;;;;;;4997043;28;20022;-67
2023/02/13 14:32:52;;;;;;;9.95;5.15;;;;;;;;;;4990432;28;20027;-67
2023/02/13 14:35:21;;;;;;;8.73;4.70;;;;;;;;;;4997241;28;20382;-66
2023/02/13 14:37:49;;;;;;;9.60;5.28;;;;;;;;;;4994808;28;20106;-66
2023/02/13 14:40:14;;;;;;;9.45;4.63;;;;;;;;;;4985400;28;20390;-67
2023/02/13 14:42:39;;;;;;;8.93;4.40;;;;;;;;;;4993329;28;20026;-67
2023/02/13 14:45:12;;;;;;;8.15;4.45;;;;;;;;;;4996521;28;20046;-66
2023/02/13 14:47:41;;;;;;;10.73;4.30;;;;;;;;;;4997209;28;20023;-67
2023/02/13 14:50:12;;;;;;;9.98;4.72;;;;;;;;;;4997950;28;20014;-66
2023/02/13 14:52:41;;;;;;;8.80;4.65;;;;;;;;;;4988323;28;20023;-67
2023/02/13 14:55:12;;;;;;;8.15;4.60;;;;;;;;;;4986530;28;20413;-67
2023/02/13 14:57:40;;;;;;;9.90;4.53;;;;;;;;;;4994273;28;20492;-67
2023/02/13 15:00:32;;;;;;;8.65;4.88;;;;;;;;;;4987820;28;20076;-66
2023/02/13 15:03:03;;;;;;;9.45;4.60;;;;;;;;;;5004687;28;20042;-66
2023/02/13 15:05:32;;;;;;;9.25;4.55;;;;;;;;;;4995729;28;20030;-67
2023/02/13 15:08:06;;;;;;;9.50;5.00;;;;;;;;;;4993754;28;20034;-67
2023/02/13 15:10:49;;;;;;;9.90;4.95;;;;;;;;;;4992165;28;20037;-67
2023/02/13 15:13:19;;;;;;;9.40;4.93;;;;;;;;;;4999281;28;20374;-67
2023/02/13 15:15:49;;;;;;;10.07;5.25;;;;;;;;;;5013663;28;20022;-67
2023/02/13 15:18:26;;;;;;;10.05;4.88;;;;;;;;;;4997212;28;20023;-67